Meadia Heights, Pennsylvania
Current Conditions -  °F | °C
As of 2:53 PM on Friday 31 Oct 2014 (Local Time) from KLNS Reporting Station
Broken Clouds Broken Clouds  
Wind Chill: 54°   Ceiling: 5500
Heat Index: 54°   Visibility: 10mi
Dew Point: 31°   Wind: 7mph
Humidity: 41%   Direction: 50°NE
Pressure: 29.88"   Gusts: NA
Location:  40.0158°N, 76.2452°W
Report Text: KLNS 311853Z 05006KT 10SM BKN055 12/M01 A2988 RMK AO2 SLP120 T01221006
Loading
Personal Weather Stations






























Interactive Weather Map
Tropical Storm Tracking
New forecast layout! Learn more

10-Day Weather Forecast

Advertisements
Track Severe Weather on mobile